sensor_id;sensor_type;location;lat;lon;timestamp;temperature;humidity
1175;DHT22;576;48.418;10.074;2022-10-17T00:01:00;24.00;68.50
1175;DHT22;576;48.418;10.074;2022-10-17T00:03:28;24.00;68.50
1175;DHT22;576;48.418;10.074;2022-10-17T00:05:57;24.00;68.50
1175;DHT22;576;48.418;10.074;2022-10-17T00:08:25;24.00;68.50
1175;DHT22;576;48.418;10.074;2022-10-17T00:10:57;24.00;68.50
1175;DHT22;576;48.418;10.074;2022-10-17T00:13:27;24.00;68.40
1175;DHT22;576;48.418;10.074;2022-10-17T00:15:56;24.00;68.50
1175;DHT22;576;48.418;10.074;2022-10-17T00:18:24;24.00;68.50
1175;DHT22;576;48.418;10.074;2022-10-17T00:20:52;24.00;68.40
1175;DHT22;576;48.418;10.074;2022-10-17T00:23:21;24.00;68.50
1175;DHT22;576;48.418;10.074;2022-10-17T00:25:57;24.00;68.40
1175;DHT22;576;48.418;10.074;2022-10-17T00:28:26;24.00;68.50
1175;DHT22;576;48.418;10.074;2022-10-17T00:30:56;24.00;68.40
1175;DHT22;576;48.418;10.074;2022-10-17T00:33:24;23.90;68.40
1175;DHT22;576;48.418;10.074;2022-10-17T00:36:02;23.90;68.50
1175;DHT22;576;48.418;10.074;2022-10-17T00:38:30;23.90;68.40
1175;DHT22;576;48.418;10.074;2022-10-17T00:40:59;23.90;68.40
1175;DHT22;576;48.418;10.074;2022-10-17T00:43:28;23.90;68.40
1175;DHT22;576;48.418;10.074;2022-10-17T00:45:57;23.90;68.40
1175;DHT22;576;48.418;10.074;2022-10-17T00:48:25;23.90;68.40
1175;DHT22;576;48.418;10.074;2022-10-17T00:50:53;23.90;68.40
1175;DHT22;576;48.418;10.074;2022-10-17T00:53:22;23.90;68.40
1175;DHT22;576;48.418;10.074;2022-10-17T00:55:51;23.90;68.40
1175;DHT22;576;48.418;10.074;2022-10-17T00:58:21;23.90;68.40
1175;DHT22;576;48.418;10.074;2022-10-17T01:00:50;23.90;68.40
1175;DHT22;576;48.418;10.074;2022-10-17T01:03:18;23.90;68.40
1175;DHT22;576;48.418;10.074;2022-10-17T01:05:46;23.90;68.40
1175;DHT22;576;48.418;10.074;2022-10-17T01:08:15;23.90;68.40
1175;DHT22;576;48.418;10.074;2022-10-17T01:10:52;23.90;68.40
1175;DHT22;576;48.418;10.074;2022-10-17T01:13:30;23.90;68.40
1175;DHT22;576;48.418;10.074;2022-10-17T01:16:08;23.90;68.40
1175;DHT22;576;48.418;10.074;2022-10-17T01:18:47;23.80;68.40
1175;DHT22;576;48.418;10.074;2022-10-17T01:21:30;23.80;68.40
1175;DHT22;576;48.418;10.074;2022-10-17T01:24:17;23.80;68.40
1175;DHT22;576;48.418;10.074;2022-10-17T01:32:54;23.80;68.40
1175;DHT22;576;48.418;10.074;2022-10-17T01:35:28;23.80;68.40
1175;DHT22;576;48.418;10.074;2022-10-17T01:38:04;23.80;68.40
1175;DHT22;576;48.418;10.074;2022-10-17T01:40:38;23.80;68.40
1175;DHT22;576;48.418;10.074;2022-10-17T01:43:13;23.80;68.40
1175;DHT22;576;48.418;10.074;2022-10-17T01:45:45;23.80;68.40
1175;DHT22;576;48.418;10.074;2022-10-17T01:48:21;23.80;68.40
1175;DHT22;576;48.418;10.074;2022-10-17T01:50:51;23.80;68.50
1175;DHT22;576;48.418;10.074;2022-10-17T01:53:27;23.80;68.50
1175;DHT22;576;48.418;10.074;2022-10-17T01:55:57;23.80;68.50
1175;DHT22;576;48.418;10.074;2022-10-17T01:58:28;23.80;68.40
1175;DHT22;576;48.418;10.074;2022-10-17T02:01:00;23.80;68.50
1175;DHT22;576;48.418;10.074;2022-10-17T02:03:33;23.70;68.50
1175;DHT22;576;48.418;10.074;2022-10-17T02:06:05;23.70;68.50
1175;DHT22;576;48.418;10.074;2022-10-17T02:08:40;23.70;68.50
1175;DHT22;576;48.418;10.074;2022-10-17T02:11:13;23.70;68.50
1175;DHT22;576;48.418;10.074;2022-10-17T02:13:54;23.70;68.50
1175;DHT22;576;48.418;10.074;2022-10-17T02:16:34;23.70;68.50
1175;DHT22;576;48.418;10.074;2022-10-17T02:22:04;23.70;68.50
1175;DHT22;576;48.418;10.074;2022-10-17T02:24:39;23.70;68.50
1175;DHT22;576;48.418;10.074;2022-10-17T02:27:16;23.70;68.50
1175;DHT22;576;48.418;10.074;2022-10-17T02:29:56;23.70;68.50
1175;DHT22;576;48.418;10.074;2022-10-17T02:32:32;23.70;68.50
1175;DHT22;576;48.418;10.074;2022-10-17T02:35:06;23.70;68.50
1175;DHT22;576;48.418;10.074;2022-10-17T02:37:36;23.70;68.50
1175;DHT22;576;48.418;10.074;2022-10-17T02:40:06;23.70;68.50
1175;DHT22;576;48.418;10.074;2022-10-17T02:42:38;23.70;68.50
1175;DHT22;576;48.418;10.074;2022-10-17T02:45:10;23.60;68.50
1175;DHT22;576;48.418;10.074;2022-10-17T02:47:47;23.70;68.50
1175;DHT22;576;48.418;10.074;2022-10-17T02:50:21;23.60;68.50
1175;DHT22;576;48.418;10.074;2022-10-17T02:52:58;23.70;68.50
1175;DHT22;576;48.418;10.074;2022-10-17T02:55:30;23.60;68.50
1175;DHT22;576;48.418;10.074;2022-10-17T02:58:02;23.60;68.50
1175;DHT22;576;48.418;10.074;2022-10-17T03:00:37;23.60;68.50
1175;DHT22;576;48.418;10.074;2022-10-17T03:03:18;23.60;68.50
1175;DHT22;576;48.418;10.074;2022-10-17T03:05:48;23.60;68.50
1175;DHT22;576;48.418;10.074;2022-10-17T03:08:21;23.60;68.60
1175;DHT22;576;48.418;10.074;2022-10-17T03:10:49;23.60;68.60
1175;DHT22;576;48.418;10.074;2022-10-17T03:13:19;23.60;68.60
1175;DHT22;576;48.418;10.074;2022-10-17T03:15:48;23.60;68.60
1175;DHT22;576;48.418;10.074;2022-10-17T03:18:16;23.60;68.60
1175;DHT22;576;48.418;10.074;2022-10-17T03:20:48;23.60;68.60
1175;DHT22;576;48.418;10.074;2022-10-17T03:23:16;23.60;68.60
1175;DHT22;576;48.418;10.074;2022-10-17T03:25:44;23.60;68.60
1175;DHT22;576;48.418;10.074;2022-10-17T03:28:14;23.60;68.60
1175;DHT22;576;48.418;10.074;2022-10-17T03:30:42;23.60;68.60
1175;DHT22;576;48.418;10.074;2022-10-17T03:33:10;23.50;68.60
1175;DHT22;576;48.418;10.074;2022-10-17T03:35:39;23.50;68.60
1175;DHT22;576;48.418;10.074;2022-10-17T03:38:09;23.50;68.60
1175;DHT22;576;48.418;10.074;2022-10-17T03:40:37;23.50;68.60
1175;DHT22;576;48.418;10.074;2022-10-17T03:43:06;23.50;68.60
1175;DHT22;576;48.418;10.074;2022-10-17T03:45:39;23.50;68.60
1175;DHT22;576;48.418;10.074;2022-10-17T03:48:10;23.50;68.60
1175;DHT22;576;48.418;10.074;2022-10-17T03:50:38;23.50;68.60
1175;DHT22;576;48.418;10.074;2022-10-17T03:53:08;23.50;68.60
1175;DHT22;576;48.418;10.074;2022-10-17T03:55:37;23.50;68.70
1175;DHT22;576;48.418;10.074;2022-10-17T03:58:05;23.50;68.60
1175;DHT22;576;48.418;10.074;2022-10-17T04:00:35;23.50;68.60
1175;DHT22;576;48.418;10.074;2022-10-17T04:03:03;23.50;68.70
1175;DHT22;576;48.418;10.074;2022-10-17T04:05:32;23.50;68.70
1175;DHT22;576;48.418;10.074;2022-10-17T04:08:00;23.50;68.60
1175;DHT22;576;48.418;10.074;2022-10-17T04:11:02;23.50;68.60
1175;DHT22;576;48.418;10.074;2022-10-17T04:13:31;23.50;68.60
1175;DHT22;576;48.418;10.074;2022-10-17T04:16:02;23.50;68.70
1175;DHT22;576;48.418;10.074;2022-10-17T04:18:31;23.50;68.70
1175;DHT22;576;48.418;10.074;2022-10-17T04:21:00;23.50;68.70
1175;DHT22;576;48.418;10.074;2022-10-17T04:23:29;23.50;68.70
1175;DHT22;576;48.418;10.074;2022-10-17T04:26:05;23.50;68.70
1175;DHT22;576;48.418;10.074;2022-10-17T04:28:34;23.40;68.70
1175;DHT22;576;48.418;10.074;2022-10-17T04:31:04;23.40;68.70
1175;DHT22;576;48.418;10.074;2022-10-17T04:33:40;23.40;68.70
1175;DHT22;576;48.418;10.074;2022-10-17T04:36:11;23.40;68.70
1175;DHT22;576;48.418;10.074;2022-10-17T04:38:40;23.40;68.70
1175;DHT22;576;48.418;10.074;2022-10-17T04:41:12;23.40;68.70
1175;DHT22;576;48.418;10.074;2022-10-17T04:43:41;23.40;68.70
1175;DHT22;576;48.418;10.074;2022-10-17T04:46:17;23.40;68.70
1175;DHT22;576;48.418;10.074;2022-10-17T04:48:46;23.40;68.70
1175;DHT22;576;48.418;10.074;2022-10-17T04:51:15;23.40;68.70
1175;DHT22;576;48.418;10.074;2022-10-17T04:54:10;23.40;68.70
1175;DHT22;576;48.418;10.074;2022-10-17T04:56:43;23.40;68.60
1175;DHT22;576;48.418;10.074;2022-10-17T04:59:12;23.40;68.60
1175;DHT22;576;48.418;10.074;2022-10-17T05:01:43;23.40;68.50
1175;DHT22;576;48.418;10.074;2022-10-17T05:04:12;23.40;68.50
1175;DHT22;576;48.418;10.074;2022-10-17T05:06:40;23.40;68.50
1175;DHT22;576;48.418;10.074;2022-10-17T05:09:33;23.40;68.50
1175;DHT22;576;48.418;10.074;2022-10-17T05:12:05;23.30;68.40
1175;DHT22;576;48.418;10.074;2022-10-17T05:14:39;23.40;68.40
1175;DHT22;576;48.418;10.074;2022-10-17T05:17:07;23.30;68.40
1175;DHT22;576;48.418;10.074;2022-10-17T05:19:36;23.30;68.30
1175;DHT22;576;48.418;10.074;2022-10-17T05:22:06;23.30;68.40
1175;DHT22;576;48.418;10.074;2022-10-17T05:24:34;23.30;68.40
1175;DHT22;576;48.418;10.074;2022-10-17T05:27:02;23.30;68.30
1175;DHT22;576;48.418;10.074;2022-10-17T05:29:33;23.30;68.30
1175;DHT22;576;48.418;10.074;2022-10-17T05:32:09;23.30;68.40
1175;DHT22;576;48.418;10.074;2022-10-17T05:34:37;23.30;68.40
1175;DHT22;576;48.418;10.074;2022-10-17T05:37:05;23.30;68.40
1175;DHT22;576;48.418;10.074;2022-10-17T05:39:34;23.30;68.40
1175;DHT22;576;48.418;10.074;2022-10-17T05:42:03;23.30;68.30
1175;DHT22;576;48.418;10.074;2022-10-17T05:44:33;23.30;68.60
1175;DHT22;576;48.418;10.074;2022-10-17T05:47:01;23.30;69.20
1175;DHT22;576;48.418;10.074;2022-10-17T05:49:30;23.30;69.00
1175;DHT22;576;48.418;10.074;2022-10-17T05:52:15;23.30;69.00
1175;DHT22;576;48.418;10.074;2022-10-17T05:55:07;23.30;68.80
1175;DHT22;576;48.418;10.074;2022-10-17T05:57:35;23.30;68.80
1175;DHT22;576;48.418;10.074;2022-10-17T06:00:09;23.30;68.70
1175;DHT22;576;48.418;10.074;2022-10-17T06:02:40;23.30;68.80
1175;DHT22;576;48.418;10.074;2022-10-17T06:05:11;23.30;68.80
1175;DHT22;576;48.418;10.074;2022-10-17T06:07:40;23.30;68.80
1175;DHT22;576;48.418;10.074;2022-10-17T06:10:09;23.30;68.80
1175;DHT22;576;48.418;10.074;2022-10-17T06:12:38;23.30;68.70
1175;DHT22;576;48.418;10.074;2022-10-17T06:15:09;23.30;68.70
1175;DHT22;576;48.418;10.074;2022-10-17T06:17:39;23.30;68.70
1175;DHT22;576;48.418;10.074;2022-10-17T06:20:08;23.30;68.70
1175;DHT22;576;48.418;10.074;2022-10-17T06:22:36;23.30;68.60
1175;DHT22;576;48.418;10.074;2022-10-17T06:25:10;23.30;68.60
1175;DHT22;576;48.418;10.074;2022-10-17T06:27:39;23.30;68.60
1175;DHT22;576;48.418;10.074;2022-10-17T06:30:09;23.30;68.50
1175;DHT22;576;48.418;10.074;2022-10-17T06:32:37;23.30;68.50
1175;DHT22;576;48.418;10.074;2022-10-17T06:35:06;23.30;68.50
1175;DHT22;576;48.418;10.074;2022-10-17T06:37:35;23.30;68.50
1175;DHT22;576;48.418;10.074;2022-10-17T06:40:08;23.30;68.50
1175;DHT22;576;48.418;10.074;2022-10-17T06:42:38;23.30;69.10
1175;DHT22;576;48.418;10.074;2022-10-17T06:45:23;23.30;69.20
1175;DHT22;576;48.418;10.074;2022-10-17T06:48:07;23.30;69.20
1175;DHT22;576;48.418;10.074;2022-10-17T06:51:06;23.40;69.30
1175;DHT22;576;48.418;10.074;2022-10-17T06:53:44;23.40;69.40
1175;DHT22;576;48.418;10.074;2022-10-17T06:56:42;23.40;69.50
1175;DHT22;576;48.418;10.074;2022-10-17T06:59:28;23.40;69.50
1175;DHT22;576;48.418;10.074;2022-10-17T07:02:09;23.50;69.50
1175;DHT22;576;48.418;10.074;2022-10-17T07:04:38;23.50;69.60
1175;DHT22;576;48.418;10.074;2022-10-17T07:07:06;23.50;69.60
1175;DHT22;576;48.418;10.074;2022-10-17T07:09:35;23.50;69.50
1175;DHT22;576;48.418;10.074;2022-10-17T07:12:04;23.60;69.50
1175;DHT22;576;48.418;10.074;2022-10-17T07:14:34;23.60;69.40
1175;DHT22;576;48.418;10.074;2022-10-17T07:17:02;23.60;69.40
1175;DHT22;576;48.418;10.074;2022-10-17T07:19:33;23.60;69.20
1175;DHT22;576;48.418;10.074;2022-10-17T07:22:01;23.60;69.00
1175;DHT22;576;48.418;10.074;2022-10-17T07:24:31;23.60;68.80
1175;DHT22;576;48.418;10.074;2022-10-17T07:27:10;23.60;68.90
1175;DHT22;576;48.418;10.074;2022-10-17T07:29:39;23.70;68.50
1175;DHT22;576;48.418;10.074;2022-10-17T07:32:16;23.70;68.50
1175;DHT22;576;48.418;10.074;2022-10-17T07:34:46;23.70;68.70
1175;DHT22;576;48.418;10.074;2022-10-17T07:37:14;23.70;68.90
1175;DHT22;576;48.418;10.074;2022-10-17T07:39:48;23.70;68.90
1175;DHT22;576;48.418;10.074;2022-10-17T07:42:17;23.70;68.80
1175;DHT22;576;48.418;10.074;2022-10-17T07:44:45;23.70;68.60
1175;DHT22;576;48.418;10.074;2022-10-17T07:47:14;23.70;68.50
1175;DHT22;576;48.418;10.074;2022-10-17T07:49:42;23.80;68.60
1175;DHT22;576;48.418;10.074;2022-10-17T07:52:13;23.80;68.40
1175;DHT22;576;48.418;10.074;2022-10-17T07:54:41;23.80;68.20
1175;DHT22;576;48.418;10.074;2022-10-17T07:57:10;23.80;68.40
1175;DHT22;576;48.418;10.074;2022-10-17T07:59:38;23.80;68.20
1175;DHT22;576;48.418;10.074;2022-10-17T08:02:09;23.80;68.20
1175;DHT22;576;48.418;10.074;2022-10-17T08:04:41;23.80;68.00
1175;DHT22;576;48.418;10.074;2022-10-17T08:07:09;23.80;68.10
1175;DHT22;576;48.418;10.074;2022-10-17T08:09:48;23.80;67.90
1175;DHT22;576;48.418;10.074;2022-10-17T08:12:16;23.80;67.90
1175;DHT22;576;48.418;10.074;2022-10-17T08:14:44;23.80;68.10
1175;DHT22;576;48.418;10.074;2022-10-17T08:17:14;23.90;68.00
1175;DHT22;576;48.418;10.074;2022-10-17T08:19:42;23.90;68.00
1175;DHT22;576;48.418;10.074;2022-10-17T08:22:10;23.90;67.90
1175;DHT22;576;48.418;10.074;2022-10-17T08:24:38;23.90;68.00
1175;DHT22;576;48.418;10.074;2022-10-17T08:27:09;23.90;68.10
1175;DHT22;576;48.418;10.074;2022-10-17T08:29:39;23.90;68.10
1175;DHT22;576;48.418;10.074;2022-10-17T08:32:07;24.00;68.10
1175;DHT22;576;48.418;10.074;2022-10-17T08:34:36;24.00;68.10
1175;DHT22;576;48.418;10.074;2022-10-17T08:37:04;24.00;68.00
1175;DHT22;576;48.418;10.074;2022-10-17T08:39:32;24.00;68.00
1175;DHT22;576;48.418;10.074;2022-10-17T08:42:12;24.00;68.00
1175;DHT22;576;48.418;10.074;2022-10-17T08:44:53;24.00;68.10
1175;DHT22;576;48.418;10.074;2022-10-17T08:47:28;24.00;68.10
1175;DHT22;576;48.418;10.074;2022-10-17T08:50:02;24.00;68.00
1175;DHT22;576;48.418;10.074;2022-10-17T08:52:35;24.10;68.10
1175;DHT22;576;48.418;10.074;2022-10-17T08:55:13;24.10;68.00
1175;DHT22;576;48.418;10.074;2022-10-17T08:57:43;24.10;68.10
1175;DHT22;576;48.418;10.074;2022-10-17T09:00:16;24.10;68.10
1175;DHT22;576;48.418;10.074;2022-10-17T09:02:57;24.10;67.90
1175;DHT22;576;48.418;10.074;2022-10-17T09:05:36;24.10;67.90
1175;DHT22;576;48.418;10.074;2022-10-17T09:08:19;24.10;67.90
1175;DHT22;576;48.418;10.074;2022-10-17T09:10:55;24.10;67.90
1175;DHT22;576;48.418;10.074;2022-10-17T09:13:40;24.10;68.10
1175;DHT22;576;48.418;10.074;2022-10-17T09:16:21;24.20;68.10
1175;DHT22;576;48.418;10.074;2022-10-17T09:18:59;24.20;67.90
1175;DHT22;576;48.418;10.074;2022-10-17T09:21:35;24.20;67.80
1175;DHT22;576;48.418;10.074;2022-10-17T09:24:12;24.20;67.80
1175;DHT22;576;48.418;10.074;2022-10-17T09:26:43;24.20;67.70
1175;DHT22;576;48.418;10.074;2022-10-17T09:29:19;24.30;67.70
1175;DHT22;576;48.418;10.074;2022-10-17T09:31:53;24.30;67.70
1175;DHT22;576;48.418;10.074;2022-10-17T09:34:26;24.30;67.60
1175;DHT22;576;48.418;10.074;2022-10-17T09:36:57;24.40;67.60
1175;DHT22;576;48.418;10.074;2022-10-17T09:39:26;24.40;67.50
1175;DHT22;576;48.418;10.074;2022-10-17T09:41:59;24.40;67.40
1175;DHT22;576;48.418;10.074;2022-10-17T09:44:31;24.40;67.40
1175;DHT22;576;48.418;10.074;2022-10-17T09:47:20;24.40;67.50
1175;DHT22;576;48.418;10.074;2022-10-17T09:49:50;24.40;67.40
1175;DHT22;576;48.418;10.074;2022-10-17T09:52:21;24.50;67.50
1175;DHT22;576;48.418;10.074;2022-10-17T09:54:55;24.50;67.90
1175;DHT22;576;48.418;10.074;2022-10-17T09:57:24;24.50;67.80
1175;DHT22;576;48.418;10.074;2022-10-17T09:59:59;24.50;67.70
1175;DHT22;576;48.418;10.074;2022-10-17T10:02:29;24.50;67.70
1175;DHT22;576;48.418;10.074;2022-10-17T10:05:01;24.60;67.50
1175;DHT22;576;48.418;10.074;2022-10-17T10:07:35;24.60;67.10
1175;DHT22;576;48.418;10.074;2022-10-17T10:10:05;24.60;67.30
1175;DHT22;576;48.418;10.074;2022-10-17T10:12:36;24.60;67.20
1175;DHT22;576;48.418;10.074;2022-10-17T10:15:33;24.70;67.00
1175;DHT22;576;48.418;10.074;2022-10-17T10:18:01;24.70;66.20
1175;DHT22;576;48.418;10.074;2022-10-17T10:20:32;24.70;66.40
1175;DHT22;576;48.418;10.074;2022-10-17T10:23:21;24.70;66.60
1175;DHT22;576;48.418;10.074;2022-10-17T10:25:54;24.80;66.40
1175;DHT22;576;48.418;10.074;2022-10-17T10:28:25;24.80;66.30
1175;DHT22;576;48.418;10.074;2022-10-17T10:30:57;24.90;65.50
1175;DHT22;576;48.418;10.074;2022-10-17T10:33:28;24.90;65.70
1175;DHT22;576;48.418;10.074;2022-10-17T10:36:00;25.00;65.50
1175;DHT22;576;48.418;10.074;2022-10-17T10:38:31;25.20;65.40
1175;DHT22;576;48.418;10.074;2022-10-17T10:41:02;25.30;65.10
1175;DHT22;576;48.418;10.074;2022-10-17T10:43:34;25.40;64.90
1175;DHT22;576;48.418;10.074;2022-10-17T10:46:16;25.50;64.70
1175;DHT22;576;48.418;10.074;2022-10-17T10:48:53;25.50;64.50
1175;DHT22;576;48.418;10.074;2022-10-17T10:51:26;25.50;64.30
1175;DHT22;576;48.418;10.074;2022-10-17T10:54:00;25.60;64.30
1175;DHT22;576;48.418;10.074;2022-10-17T10:56:32;25.70;64.30
1175;DHT22;576;48.418;10.074;2022-10-17T10:59:05;25.70;64.20
1175;DHT22;576;48.418;10.074;2022-10-17T11:01:44;25.80;64.10
1175;DHT22;576;48.418;10.074;2022-10-17T11:04:21;25.90;64.00
1175;DHT22;576;48.418;10.074;2022-10-17T11:06:52;25.90;63.80
1175;DHT22;576;48.418;10.074;2022-10-17T11:09:28;26.00;63.60
1175;DHT22;576;48.418;10.074;2022-10-17T11:12:09;26.10;63.40
1175;DHT22;576;48.418;10.074;2022-10-17T11:14:46;26.10;63.30
1175;DHT22;576;48.418;10.074;2022-10-17T11:17:24;26.20;63.10
1175;DHT22;576;48.418;10.074;2022-10-17T11:20:06;26.20;63.20
1175;DHT22;576;48.418;10.074;2022-10-17T11:22:41;26.20;63.20
1175;DHT22;576;48.418;10.074;2022-10-17T11:25:19;26.30;63.20
1175;DHT22;576;48.418;10.074;2022-10-17T11:27:49;26.30;63.20
1175;DHT22;576;48.418;10.074;2022-10-17T11:30:17;26.30;63.20
1175;DHT22;576;48.418;10.074;2022-10-17T11:32:51;26.30;63.20
1175;DHT22;576;48.418;10.074;2022-10-17T11:35:24;26.30;63.20
1175;DHT22;576;48.418;10.074;2022-10-17T11:37:58;26.30;63.30
1175;DHT22;576;48.418;10.074;2022-10-17T11:40:30;26.30;63.40
1175;DHT22;576;48.418;10.074;2022-10-17T11:43:02;26.30;63.40
1175;DHT22;576;48.418;10.074;2022-10-17T11:45:35;26.30;63.50
1175;DHT22;576;48.418;10.074;2022-10-17T11:48:11;26.30;63.40
1175;DHT22;576;48.418;10.074;2022-10-17T11:50:44;26.30;63.40
1175;DHT22;576;48.418;10.074;2022-10-17T11:53:44;26.30;63.50
1175;DHT22;576;48.418;10.074;2022-10-17T11:56:18;26.30;63.50
1175;DHT22;576;48.418;10.074;2022-10-17T11:58:52;26.30;63.40
1175;DHT22;576;48.418;10.074;2022-10-17T12:01:27;26.40;63.40
1175;DHT22;576;48.418;10.074;2022-10-17T12:04:18;26.40;63.40
1175;DHT22;576;48.418;10.074;2022-10-17T12:06:59;26.40;63.40
1175;DHT22;576;48.418;10.074;2022-10-17T12:09:36;26.50;63.50
1175;DHT22;576;48.418;10.074;2022-10-17T12:12:06;26.50;63.60
1175;DHT22;576;48.418;10.074;2022-10-17T12:14:42;26.50;63.60
1175;DHT22;576;48.418;10.074;2022-10-17T12:17:29;26.60;63.50
1175;DHT22;576;48.418;10.074;2022-10-17T12:20:27;26.70;63.40
1175;DHT22;576;48.418;10.074;2022-10-17T12:23:00;26.70;63.30
1175;DHT22;576;48.418;10.074;2022-10-17T12:25:31;26.80;63.30
1175;DHT22;576;48.418;10.074;2022-10-17T12:28:12;26.80;63.20
1175;DHT22;576;48.418;10.074;2022-10-17T12:30:53;26.80;63.20
1175;DHT22;576;48.418;10.074;2022-10-17T12:33:32;26.80;63.20
1175;DHT22;576;48.418;10.074;2022-10-17T12:39:44;26.80;63.20
1175;DHT22;576;48.418;10.074;2022-10-17T12:42:48;26.90;63.10
1175;DHT22;576;48.418;10.074;2022-10-17T12:45:45;26.90;63.10
1175;DHT22;576;48.418;10.074;2022-10-17T12:51:12;27.00;62.80
1175;DHT22;576;48.418;10.074;2022-10-17T12:54:09;27.00;62.80
1175;DHT22;576;48.418;10.074;2022-10-17T12:56:41;27.00;62.90
1175;DHT22;576;48.418;10.074;2022-10-17T12:59:14;27.00;62.90
1175;DHT22;576;48.418;10.074;2022-10-17T13:01:46;27.10;62.80
1175;DHT22;576;48.418;10.074;2022-10-17T13:04:15;27.10;62.80
1175;DHT22;576;48.418;10.074;2022-10-17T13:06:46;27.10;62.80
1175;DHT22;576;48.418;10.074;2022-10-17T13:09:21;27.10;63.00
1175;DHT22;576;48.418;10.074;2022-10-17T13:11:52;27.00;63.00
1175;DHT22;576;48.418;10.074;2022-10-17T13:14:22;27.00;63.00
1175;DHT22;576;48.418;10.074;2022-10-17T13:16:53;27.00;63.20
1175;DHT22;576;48.418;10.074;2022-10-17T13:19:22;27.00;63.40
1175;DHT22;576;48.418;10.074;2022-10-17T13:21:52;27.00;63.50
1175;DHT22;576;48.418;10.074;2022-10-17T13:24:26;27.10;63.50
1175;DHT22;576;48.418;10.074;2022-10-17T13:26:57;27.10;63.50
1175;DHT22;576;48.418;10.074;2022-10-17T13:29:26;27.10;63.70
1175;DHT22;576;48.418;10.074;2022-10-17T13:31:58;27.10;63.70
1175;DHT22;576;48.418;10.074;2022-10-17T13:34:27;27.10;63.90
1175;DHT22;576;48.418;10.074;2022-10-17T13:36:58;27.00;63.90
1175;DHT22;576;48.418;10.074;2022-10-17T13:39:29;27.00;64.00
1175;DHT22;576;48.418;10.074;2022-10-17T13:42:24;27.00;64.20
1175;DHT22;576;48.418;10.074;2022-10-17T13:44:54;27.00;64.30
1175;DHT22;576;48.418;10.074;2022-10-17T13:47:23;27.00;64.40
1175;DHT22;576;48.418;10.074;2022-10-17T13:49:52;27.00;64.40
1175;DHT22;576;48.418;10.074;2022-10-17T13:52:24;27.10;64.40
1175;DHT22;576;48.418;10.074;2022-10-17T13:54:54;27.10;64.50
1175;DHT22;576;48.418;10.074;2022-10-17T13:57:26;27.10;64.50
1175;DHT22;576;48.418;10.074;2022-10-17T13:59:57;27.10;64.60
1175;DHT22;576;48.418;10.074;2022-10-17T14:02:27;27.10;64.70
1175;DHT22;576;48.418;10.074;2022-10-17T14:04:59;27.10;64.80
1175;DHT22;576;48.418;10.074;2022-10-17T14:07:49;27.10;64.90
1175;DHT22;576;48.418;10.074;2022-10-17T14:10:38;27.10;64.90
1175;DHT22;576;48.418;10.074;2022-10-17T14:13:21;27.20;65.00
1175;DHT22;576;48.418;10.074;2022-10-17T14:15:50;27.20;65.10
1175;DHT22;576;48.418;10.074;2022-10-17T14:18:21;27.20;65.20
1175;DHT22;576;48.418;10.074;2022-10-17T14:20:51;27.20;65.30
1175;DHT22;576;48.418;10.074;2022-10-17T14:23:40;27.20;65.40
1175;DHT22;576;48.418;10.074;2022-10-17T14:26:15;27.20;65.50
1175;DHT22;576;48.418;10.074;2022-10-17T14:28:47;27.20;65.50
1175;DHT22;576;48.418;10.074;2022-10-17T14:31:24;27.20;65.60
1175;DHT22;576;48.418;10.074;2022-10-17T14:33:56;27.10;65.70
1175;DHT22;576;48.418;10.074;2022-10-17T14:36:33;27.20;65.80
1175;DHT22;576;48.418;10.074;2022-10-17T14:39:02;27.10;65.90
1175;DHT22;576;48.418;10.074;2022-10-17T14:41:38;27.10;65.70
1175;DHT22;576;48.418;10.074;2022-10-17T14:44:19;27.00;62.50
1175;DHT22;576;48.418;10.074;2022-10-17T14:46:51;27.00;62.10
1175;DHT22;576;48.418;10.074;2022-10-17T14:49:35;26.90;61.30
1175;DHT22;576;48.418;10.074;2022-10-17T14:52:25;26.80;63.50
1175;DHT22;576;48.418;10.074;2022-10-17T14:54:54;26.80;63.70
1175;DHT22;576;48.418;10.074;2022-10-17T14:57:26;26.70;62.80
1175;DHT22;576;48.418;10.074;2022-10-17T14:59:56;26.70;62.80
1175;DHT22;576;48.418;10.074;2022-10-17T15:02:26;26.70;61.40
1175;DHT22;576;48.418;10.074;2022-10-17T15:04:55;26.60;60.90
1175;DHT22;576;48.418;10.074;2022-10-17T15:07:23;26.50;61.80
1175;DHT22;576;48.418;10.074;2022-10-17T15:09:52;26.40;62.40
1175;DHT22;576;48.418;10.074;2022-10-17T15:12:21;26.30;62.00
1175;DHT22;576;48.418;10.074;2022-10-17T15:14:51;26.30;62.00
1175;DHT22;576;48.418;10.074;2022-10-17T15:17:24;26.20;62.60
1175;DHT22;576;48.418;10.074;2022-10-17T15:19:52;26.10;63.10
1175;DHT22;576;48.418;10.074;2022-10-17T15:22:21;26.00;63.00
1175;DHT22;576;48.418;10.074;2022-10-17T15:24:49;25.90;63.20
1175;DHT22;576;48.418;10.074;2022-10-17T15:27:19;25.80;63.30
1175;DHT22;576;48.418;10.074;2022-10-17T15:29:48;25.70;64.30
1175;DHT22;576;48.418;10.074;2022-10-17T15:32:17;25.70;64.20
1175;DHT22;576;48.418;10.074;2022-10-17T15:34:47;25.60;64.30
1175;DHT22;576;48.418;10.074;2022-10-17T15:37:18;25.60;64.80
1175;DHT22;576;48.418;10.074;2022-10-17T15:39:48;25.50;65.40
1175;DHT22;576;48.418;10.074;2022-10-17T15:42:21;25.50;65.60
1175;DHT22;576;48.418;10.074;2022-10-17T15:44:49;25.50;65.70
1175;DHT22;576;48.418;10.074;2022-10-17T15:47:22;25.50;65.80
1175;DHT22;576;48.418;10.074;2022-10-17T15:49:53;25.50;65.80
1175;DHT22;576;48.418;10.074;2022-10-17T15:52:22;25.50;65.80
1175;DHT22;576;48.418;10.074;2022-10-17T15:54:51;25.50;65.90
1175;DHT22;576;48.418;10.074;2022-10-17T15:57:20;25.50;66.00
1175;DHT22;576;48.418;10.074;2022-10-17T15:59:50;25.50;66.10
1175;DHT22;576;48.418;10.074;2022-10-17T16:02:20;25.50;66.20
1175;DHT22;576;48.418;10.074;2022-10-17T16:04:49;25.40;66.20
1175;DHT22;576;48.418;10.074;2022-10-17T16:07:19;25.40;66.30
1175;DHT22;576;48.418;10.074;2022-10-17T16:09:48;25.40;66.40
1175;DHT22;576;48.418;10.074;2022-10-17T16:12:18;25.40;66.50
1175;DHT22;576;48.418;10.074;2022-10-17T16:14:53;25.40;66.60
1175;DHT22;576;48.418;10.074;2022-10-17T16:17:22;25.30;66.70
1175;DHT22;576;48.418;10.074;2022-10-17T16:19:50;25.30;66.80
1175;DHT22;576;48.418;10.074;2022-10-17T16:22:25;25.30;66.90
1175;DHT22;576;48.418;10.074;2022-10-17T16:24:54;25.30;67.00
1175;DHT22;576;48.418;10.074;2022-10-17T16:27:25;25.20;67.30
1175;DHT22;576;48.418;10.074;2022-10-17T16:29:53;25.20;67.40
1175;DHT22;576;48.418;10.074;2022-10-17T16:32:21;25.20;67.50
1175;DHT22;576;48.418;10.074;2022-10-17T16:34:49;25.20;67.60
1175;DHT22;576;48.418;10.074;2022-10-17T16:37:17;25.10;67.70
1175;DHT22;576;48.418;10.074;2022-10-17T16:39:47;25.10;67.90
1175;DHT22;576;48.418;10.074;2022-10-17T16:42:18;25.10;68.00
1175;DHT22;576;48.418;10.074;2022-10-17T16:44:47;25.10;68.20
1175;DHT22;576;48.418;10.074;2022-10-17T16:47:15;24.90;69.10
1175;DHT22;576;48.418;10.074;2022-10-17T16:49:44;24.50;70.10
1175;DHT22;576;48.418;10.074;2022-10-17T16:52:12;24.30;70.70
1175;DHT22;576;48.418;10.074;2022-10-17T16:54:40;24.20;71.10